Time;durP1;ratioP1;P1;durP2;ratioP2;P2;SDS_P1;SDS_P2;PMS_P1;PMS_P2;Temp;Humidity;BMP_temperature;BMP_pressure;BME280_temperature;BME280_humidity;BME280_pressure;Samples;Min_cycle;Max_cycle;Signal;HPM_P1;HPM_P2
2021/08/31 00:01:42;;;;;;;11.03;10.00;;;14.60;99.90;;;;;;5015253;28;20179;-79
2021/08/31 00:04:08;;;;;;;11.57;10.30;;;14.60;99.90;;;;;;4997561;28;20703;-80
2021/08/31 00:06:33;;;;;;;13.20;11.90;;;14.60;99.90;;;;;;5015540;28;20185;-79
2021/08/31 00:08:59;;;;;;;14.40;12.20;;;14.60;99.90;;;;;;4997507;28;20183;-80
2021/08/31 00:11:25;;;;;;;14.00;11.13;;;14.60;99.90;;;;;;5015310;28;20186;-79
2021/08/31 00:13:50;;;;;;;17.10;13.37;;;14.60;99.90;;;;;;5014130;28;20586;-79
2021/08/31 00:16:17;;;;;;;11.53;10.33;;;14.60;99.90;;;;;;5015327;28;20174;-79
2021/08/31 00:18:43;;;;;;;11.63;10.57;;;14.60;99.90;;;;;;5015044;28;20175;-79
2021/08/31 00:21:09;;;;;;;12.77;11.20;;;14.60;99.90;;;;;;5014801;28;20260;-80
2021/08/31 00:23:35;;;;;;;14.20;11.07;;;14.60;99.90;;;;;;5015136;28;20222;-79
2021/08/31 00:26:01;;;;;;;15.80;12.77;;;14.60;99.90;;;;;;5014908;28;20187;-80
2021/08/31 00:28:27;;;;;;;13.33;12.00;;;14.50;99.90;;;;;;5015106;28;20182;-79
2021/08/31 00:30:52;;;;;;;12.47;10.27;;;14.50;99.90;;;;;;5015132;28;20193;-79
2021/08/31 00:33:18;;;;;;;15.73;10.57;;;14.50;99.90;;;;;;5014656;28;20206;-79
2021/08/31 00:35:44;;;;;;;12.17;11.07;;;14.50;99.90;;;;;;5015045;28;20708;-79
2021/08/31 00:38:10;;;;;;;10.67;9.77;;;14.40;99.90;;;;;;5014619;28;20776;-79
2021/08/31 00:40:36;;;;;;;54.23;23.30;;;14.40;99.90;;;;;;5015122;28;20597;-79
2021/08/31 00:43:02;;;;;;;12.57;11.20;;;14.30;99.90;;;;;;4996769;28;20693;-79
2021/08/31 00:45:28;;;;;;;10.77;9.87;;;14.30;99.90;;;;;;5014730;28;20179;-79
2021/08/31 00:47:54;;;;;;;10.67;9.57;;;14.30;99.90;;;;;;5014877;28;20179;-78
2021/08/31 00:50:20;;;;;;;11.93;10.63;;;14.30;99.90;;;;;;4997190;28;20214;-79
2021/08/31 00:52:46;;;;;;;11.20;10.13;;;14.30;99.90;;;;;;5014298;28;20282;-79
2021/08/31 00:55:13;;;;;;;11.23;9.87;;;14.20;99.90;;;;;;5014746;28;20190;-78
2021/08/31 00:57:39;;;;;;;15.97;11.40;;;14.20;99.90;;;;;;4996858;28;20590;-79
2021/08/31 01:00:08;;;;;;;11.27;9.90;;;14.20;99.90;;;;;;5017068;28;20225;-79
2021/08/31 01:02:33;;;;;;;11.10;10.00;;;14.10;99.90;;;;;;4997035;28;20769;-79
2021/08/31 01:04:59;;;;;;;13.47;10.93;;;14.10;99.90;;;;;;5014426;28;20227;-79
2021/08/31 01:07:26;;;;;;;11.67;10.67;;;14.10;99.90;;;;;;4996519;28;20313;-79
2021/08/31 01:09:52;;;;;;;10.83;9.83;;;14.10;99.90;;;;;;4999108;28;20714;-79
2021/08/31 01:12:19;;;;;;;12.17;9.77;;;14.10;99.90;;;;;;5008932;28;20183;-79
2021/08/31 01:14:46;;;;;;;10.80;9.80;;;14.10;99.90;;;;;;5014219;28;20221;-79
2021/08/31 01:17:12;;;;;;;12.83;9.90;;;14.10;99.90;;;;;;4997146;28;20179;-79
2021/08/31 01:19:38;;;;;;;11.77;10.13;;;14.10;99.90;;;;;;5014263;28;20175;-79
2021/08/31 01:22:07;;;;;;;12.37;10.63;;;14.10;99.90;;;;;;5014026;28;20561;-79
2021/08/31 01:24:33;;;;;;;11.93;10.67;;;14.10;99.90;;;;;;5015372;28;20266;-79
2021/08/31 01:27:00;;;;;;;10.77;9.77;;;14.10;99.90;;;;;;5014767;28;20205;-79
2021/08/31 01:29:28;;;;;;;10.47;9.47;;;14.10;99.90;;;;;;5014396;28;20664;-79
2021/08/31 01:31:54;;;;;;;10.33;9.53;;;14.10;99.90;;;;;;4996808;28;20179;-79
2021/08/31 01:34:20;;;;;;;9.93;9.00;;;14.00;99.90;;;;;;5014217;28;20293;-79
2021/08/31 01:36:45;;;;;;;10.60;9.80;;;14.00;99.90;;;;;;4997098;28;20233;-79
2021/08/31 01:39:12;;;;;;;11.10;10.10;;;14.00;99.90;;;;;;4997135;28;20183;-79
2021/08/31 01:41:37;;;;;;;11.80;9.10;;;14.00;99.90;;;;;;5013978;28;20528;-79
2021/08/31 01:44:03;;;;;;;10.90;10.00;;;13.90;99.90;;;;;;5014378;28;20198;-79
2021/08/31 01:46:30;;;;;;;10.23;9.33;;;13.90;99.90;;;;;;5014559;28;20633;-79
2021/08/31 01:48:56;;;;;;;9.63;8.73;;;13.90;99.90;;;;;;5014283;28;20175;-79
2021/08/31 01:51:22;;;;;;;11.07;9.57;;;13.90;99.90;;;;;;5013950;28;20193;-79
2021/08/31 01:53:47;;;;;;;10.70;9.30;;;13.90;99.90;;;;;;5013861;28;20644;-79
2021/08/31 01:56:13;;;;;;;10.13;9.33;;;13.90;99.90;;;;;;4996237;28;20171;-79
2021/08/31 01:58:39;;;;;;;10.30;9.40;;;13.90;99.90;;;;;;4996512;28;20209;-80
2021/08/31 02:01:05;;;;;;;10.37;9.47;;;13.90;99.90;;;;;;5014091;28;20642;-79
2021/08/31 02:03:30;;;;;;;10.57;8.97;;;13.90;99.90;;;;;;4996189;28;20249;-79
2021/08/31 02:05:56;;;;;;;10.53;9.63;;;13.80;99.90;;;;;;4996502;28;20233;-79
2021/08/31 02:08:22;;;;;;;9.53;8.80;;;13.80;99.90;;;;;;5014022;28;20191;-79
2021/08/31 02:10:47;;;;;;;9.57;8.77;;;13.90;99.90;;;;;;5013635;28;20183;-79
2021/08/31 02:13:13;;;;;;;10.50;9.47;;;13.80;99.90;;;;;;4995916;28;20211;-79
2021/08/31 02:15:38;;;;;;;11.40;10.13;;;13.80;99.90;;;;;;4995892;28;20638;-79
2021/08/31 02:18:04;;;;;;;14.03;12.50;;;13.80;99.90;;;;;;5013466;28;20179;-79
2021/08/31 02:20:30;;;;;;;9.77;8.87;;;13.90;99.90;;;;;;5012792;28;20190;-79
2021/08/31 02:22:56;;;;;;;12.27;10.63;;;13.90;99.90;;;;;;4995886;28;20191;-79
2021/08/31 02:25:21;;;;;;;11.07;10.07;;;13.80;99.90;;;;;;5010562;28;20191;-80
2021/08/31 02:27:47;;;;;;;12.77;11.30;;;13.70;99.90;;;;;;4993578;28;20250;-79
2021/08/31 02:30:13;;;;;;;10.83;9.93;;;13.60;99.90;;;;;;5011437;28;20186;-79
2021/08/31 02:32:39;;;;;;;11.13;9.87;;;13.70;99.90;;;;;;5011590;28;20680;-80
2021/08/31 02:35:05;;;;;;;10.93;9.53;;;13.60;99.90;;;;;;4993911;28;20254;-78
2021/08/31 02:37:31;;;;;;;11.60;10.47;;;13.60;99.90;;;;;;5010698;28;20254;-79
2021/08/31 02:39:56;;;;;;;11.97;10.60;;;13.60;99.90;;;;;;4997263;28;20386;-79
2021/08/31 02:42:22;;;;;;;12.00;10.80;;;13.60;99.90;;;;;;5014912;28;20205;-79
2021/08/31 02:44:48;;;;;;;10.67;9.77;;;13.70;99.90;;;;;;5015411;28;20253;-79
2021/08/31 02:47:13;;;;;;;11.30;10.07;;;13.70;99.90;;;;;;4997337;28;20706;-79
2021/08/31 02:49:39;;;;;;;10.77;9.83;;;13.70;99.90;;;;;;5015321;28;20294;-79
2021/08/31 02:52:05;;;;;;;10.80;9.60;;;13.70;99.90;;;;;;5014895;28;20199;-79
2021/08/31 02:54:31;;;;;;;9.97;9.07;;;13.80;99.90;;;;;;5015065;28;20211;-79
2021/08/31 02:56:57;;;;;;;11.43;9.90;;;13.70;99.90;;;;;;4997212;28;20973;-80
2021/08/31 02:59:22;;;;;;;11.93;10.83;;;13.70;99.90;;;;;;4997563;28;20664;-79
2021/08/31 03:02:07;;;;;;;12.07;10.97;;;13.80;99.90;;;;;;4997044;28;20179;-79
2021/08/31 03:04:43;;;;;;;11.43;10.43;;;13.70;99.90;;;;;;5014388;28;20218;-79
2021/08/31 03:07:11;;;;;;;11.77;10.67;;;13.80;99.90;;;;;;4994207;28;20184;-79
2021/08/31 03:09:37;;;;;;;11.90;10.60;;;13.80;99.90;;;;;;4996853;28;20191;-80
2021/08/31 03:12:03;;;;;;;11.47;10.37;;;13.80;99.90;;;;;;4996665;28;20593;-79
2021/08/31 03:14:30;;;;;;;12.10;10.97;;;13.70;99.90;;;;;;5010774;28;20206;-79
2021/08/31 03:16:56;;;;;;;15.87;14.10;;;13.80;99.90;;;;;;4997110;28;20186;-79
2021/08/31 03:19:26;;;;;;;12.70;11.57;;;13.80;99.90;;;;;;5012481;28;20186;-80
2021/08/31 03:21:57;;;;;;;11.13;9.77;;;13.80;99.90;;;;;;5014589;28;20213;-79
2021/08/31 03:24:23;;;;;;;12.93;11.77;;;13.80;99.90;;;;;;5015582;28;20580;-79
2021/08/31 03:26:49;;;;;;;10.63;9.67;;;13.70;99.90;;;;;;4998588;28;20187;-79
2021/08/31 03:29:15;;;;;;;16.73;12.37;;;13.70;99.90;;;;;;5016269;28;20247;-79
2021/08/31 03:31:41;;;;;;;16.50;13.13;;;13.70;99.90;;;;;;5015083;28;20175;-79
2021/08/31 03:34:06;;;;;;;12.57;11.43;;;13.60;99.90;;;;;;5016236;28;20210;-79
2021/08/31 03:36:32;;;;;;;11.60;10.47;;;13.60;99.90;;;;;;5016647;28;20268;-80
2021/08/31 03:38:58;;;;;;;12.57;11.37;;;13.60;99.90;;;;;;5016112;28;20207;-79
2021/08/31 03:41:23;;;;;;;11.27;10.27;;;13.60;99.90;;;;;;4998694;28;20258;-79
2021/08/31 03:43:49;;;;;;;11.23;10.27;;;13.60;99.90;;;;;;4998141;28;20199;-79
2021/08/31 03:46:14;;;;;;;11.30;10.00;;;13.60;99.90;;;;;;5016028;28;20173;-79
2021/08/31 03:48:40;;;;;;;11.53;10.33;;;13.60;99.90;;;;;;5015708;28;20205;-79
2021/08/31 03:51:06;;;;;;;12.07;9.83;;;13.50;99.90;;;;;;4998265;28;20652;-79
2021/08/31 03:53:32;;;;;;;12.03;10.63;;;13.50;99.90;;;;;;4998105;28;20214;-80
2021/08/31 03:55:58;;;;;;;10.67;9.60;;;13.50;99.90;;;;;;5015489;28;20656;-79
2021/08/31 03:58:24;;;;;;;11.13;10.23;;;13.50;99.90;;;;;;5015892;28;20514;-79
2021/08/31 04:00:49;;;;;;;10.77;9.87;;;13.40;99.90;;;;;;4996634;28;20194;-79
2021/08/31 04:03:15;;;;;;;11.97;9.53;;;13.50;99.90;;;;;;5021743;28;20206;-79
2021/08/31 04:05:41;;;;;;;11.33;10.23;;;13.50;99.90;;;;;;5014738;28;20286;-79
2021/08/31 04:08:07;;;;;;;9.63;8.73;;;13.40;99.90;;;;;;5014195;28;20201;-79
2021/08/31 04:10:33;;;;;;;10.00;9.10;;;13.40;99.90;;;;;;5013600;28;20248;-80
2021/08/31 04:12:58;;;;;;;9.53;8.73;;;13.30;99.90;;;;;;4997394;28;20195;-79
2021/08/31 04:15:24;;;;;;;9.67;8.97;;;13.30;99.90;;;;;;5015250;28;20179;-78
2021/08/31 04:17:50;;;;;;;11.37;10.27;;;13.30;99.90;;;;;;5014502;28;20182;-79
2021/08/31 04:20:15;;;;;;;10.73;9.73;;;13.30;99.90;;;;;;5015067;28;20536;-78
2021/08/31 04:22:41;;;;;;;10.67;9.70;;;13.20;99.90;;;;;;5015979;28;20704;-79
2021/08/31 04:25:08;;;;;;;9.80;9.00;;;13.20;99.90;;;;;;5015579;28;20219;-78
2021/08/31 04:27:33;;;;;;;10.87;9.77;;;13.10;99.90;;;;;;4997179;28;20178;-79
2021/08/31 04:29:59;;;;;;;13.17;9.20;;;13.10;99.90;;;;;;4997772;28;20184;-79
2021/08/31 04:32:24;;;;;;;11.30;10.10;;;13.00;99.90;;;;;;5014367;28;20719;-79
2021/08/31 04:34:55;;;;;;;11.13;10.23;;;13.00;99.90;;;;;;5014914;28;20249;-79
2021/08/31 04:37:22;;;;;;;10.90;9.90;;;13.00;99.90;;;;;;5015334;28;20316;-79
2021/08/31 04:39:47;;;;;;;10.87;9.17;;;13.00;99.90;;;;;;5014339;28;20663;-79
2021/08/31 04:42:13;;;;;;;9.87;9.07;;;13.00;99.90;;;;;;5013927;28;20178;-79
2021/08/31 04:44:39;;;;;;;11.63;10.53;;;13.00;99.90;;;;;;5014083;28;20222;-79
2021/08/31 04:47:04;;;;;;;10.23;9.33;;;13.00;99.90;;;;;;5013747;28;20656;-79
2021/08/31 04:49:30;;;;;;;11.20;10.17;;;13.00;99.90;;;;;;5014373;28;20177;-79
2021/08/31 04:51:56;;;;;;;10.63;9.80;;;13.10;99.90;;;;;;5014741;28;20181;-79
2021/08/31 04:54:22;;;;;;;11.13;9.80;;;13.10;99.90;;;;;;4997488;28;20212;-79
2021/08/31 04:56:47;;;;;;;11.37;10.23;;;13.10;99.90;;;;;;4997283;28;20632;-79
2021/08/31 04:59:13;;;;;;;11.50;10.50;;;13.10;99.90;;;;;;5014324;28;20267;-79
2021/08/31 05:01:39;;;;;;;11.77;10.77;;;13.10;99.90;;;;;;5014857;28;20246;-79
2021/08/31 05:04:04;;;;;;;11.03;10.13;;;13.10;99.90;;;;;;4996320;28;20667;-79
2021/08/31 05:06:31;;;;;;;11.20;10.10;;;13.10;99.90;;;;;;5014208;28;20228;-79
2021/08/31 05:08:57;;;;;;;11.50;10.50;;;13.10;99.90;;;;;;4997562;28;20186;-80
2021/08/31 05:11:22;;;;;;;11.13;10.13;;;13.10;99.90;;;;;;4999051;28;20185;-79
2021/08/31 05:13:48;;;;;;;11.33;10.40;;;13.10;99.90;;;;;;5013644;28;20304;-79
2021/08/31 05:16:16;;;;;;;11.27;10.37;;;13.10;99.90;;;;;;4994851;28;20663;-80
2021/08/31 05:18:42;;;;;;;10.50;9.70;;;13.10;99.90;;;;;;5012494;28;20174;-79
2021/08/31 05:21:07;;;;;;;11.17;10.17;;;13.10;99.90;;;;;;5013953;28;20177;-79
2021/08/31 05:23:34;;;;;;;12.63;11.10;;;13.10;99.90;;;;;;4996754;28;20214;-78
2021/08/31 05:26:00;;;;;;;10.80;9.90;;;13.10;99.90;;;;;;4997276;28;20184;-78
2021/08/31 05:28:26;;;;;;;13.10;11.50;;;13.10;99.90;;;;;;4996829;28;20181;-79
2021/08/31 05:30:51;;;;;;;12.20;11.03;;;13.10;99.90;;;;;;5014329;28;20193;-79
2021/08/31 05:33:17;;;;;;;11.53;10.63;;;13.10;99.90;;;;;;5014444;28;20209;-80
2021/08/31 05:35:43;;;;;;;12.20;11.10;;;13.10;99.90;;;;;;4998045;28;20213;-79
2021/08/31 05:38:09;;;;;;;12.50;11.13;;;13.10;99.90;;;;;;4996700;28;20182;-80
2021/08/31 05:40:35;;;;;;;12.30;11.10;;;13.10;99.90;;;;;;5007593;28;20217;-80
2021/08/31 05:43:00;;;;;;;11.63;10.60;;;13.10;99.90;;;;;;5017880;28;20199;-80
2021/08/31 05:45:28;;;;;;;12.10;10.93;;;13.10;99.90;;;;;;4998745;28;20215;-80
2021/08/31 05:47:54;;;;;;;10.87;9.97;;;13.10;99.90;;;;;;5017139;28;20241;-80
2021/08/31 05:50:20;;;;;;;11.43;10.43;;;13.10;99.90;;;;;;4999276;28;20200;-80
2021/08/31 05:52:45;;;;;;;11.17;10.17;;;13.10;99.90;;;;;;4999144;28;20268;-80
2021/08/31 05:55:11;;;;;;;17.23;10.10;;;13.20;99.90;;;;;;5016903;28;20182;-79
2021/08/31 05:57:37;;;;;;;12.43;11.13;;;13.20;99.90;;;;;;5017721;28;20178;-79
2021/08/31 06:00:04;;;;;;;11.97;10.23;;;13.20;99.90;;;;;;5018285;28;20209;-80
2021/08/31 06:02:30;;;;;;;12.23;11.13;;;13.30;99.90;;;;;;5016320;28;20263;-80
2021/08/31 06:04:55;;;;;;;11.73;10.73;;;13.30;99.90;;;;;;5016749;28;20214;-80
2021/08/31 06:07:23;;;;;;;11.40;10.40;;;13.30;99.90;;;;;;4999699;28;20181;-81
2021/08/31 06:09:49;;;;;;;12.63;10.43;;;13.40;99.90;;;;;;5017047;28;20265;-79
2021/08/31 06:12:15;;;;;;;11.23;10.13;;;13.40;99.90;;;;;;5016667;28;20202;-80
2021/08/31 06:14:41;;;;;;;13.50;12.13;;;13.40;99.90;;;;;;5019921;28;20213;-81
2021/08/31 06:17:09;;;;;;;11.03;10.13;;;13.40;99.90;;;;;;5003510;28;20186;-81
2021/08/31 06:19:35;;;;;;;12.77;11.33;;;13.50;99.90;;;;;;5021532;28;20728;-81
2021/08/31 06:22:01;;;;;;;13.07;11.97;;;13.50;99.90;;;;;;5021677;28;22048;-79
2021/08/31 06:24:27;;;;;;;12.80;11.60;;;13.50;99.90;;;;;;5004726;28;20225;-80
2021/08/31 06:26:53;;;;;;;12.87;11.60;;;13.60;99.90;;;;;;5022213;28;20183;-79
2021/08/31 06:29:18;;;;;;;13.30;11.90;;;13.60;99.90;;;;;;5022339;28;20182;-80
2021/08/31 06:31:44;;;;;;;13.13;12.10;;;13.60;99.90;;;;;;5004945;28;20182;-80
2021/08/31 06:34:10;;;;;;;12.00;11.00;;;13.70;99.90;;;;;;5022236;28;20210;-79
2021/08/31 06:36:35;;;;;;;13.03;11.73;;;13.70;99.90;;;;;;5018727;28;20179;-79
2021/08/31 06:39:01;;;;;;;13.23;11.93;;;13.80;99.90;;;;;;5020165;28;20195;-79
2021/08/31 06:41:27;;;;;;;13.77;12.47;;;13.80;99.90;;;;;;5021264;28;20182;-79
2021/08/31 06:43:52;;;;;;;12.90;11.70;;;13.80;99.90;;;;;;5002164;28;20211;-79
2021/08/31 06:46:18;;;;;;;12.77;11.47;;;13.80;99.90;;;;;;5019070;28;20238;-80
2021/08/31 06:48:45;;;;;;;12.30;11.13;;;13.90;99.90;;;;;;5020730;28;20179;-81
2021/08/31 06:51:12;;;;;;;13.33;12.13;;;13.90;99.90;;;;;;5020801;28;20230;-81
2021/08/31 06:53:39;;;;;;;12.60;11.43;;;14.00;99.90;;;;;;5020675;28;20285;-80
2021/08/31 06:56:05;;;;;;;11.97;10.87;;;14.10;99.90;;;;;;5020863;28;20168;-79
2021/08/31 06:58:31;;;;;;;13.43;12.13;;;14.10;99.90;;;;;;5002374;28;20262;-79
2021/08/31 07:00:57;;;;;;;11.73;10.73;;;14.10;99.90;;;;;;5005894;28;20270;-79
2021/08/31 07:03:23;;;;;;;12.10;10.90;;;14.20;99.90;;;;;;5023960;28;20211;-79
2021/08/31 07:05:48;;;;;;;13.53;12.23;;;14.20;99.90;;;;;;5019113;28;20194;-79
2021/08/31 07:08:14;;;;;;;11.67;10.77;;;14.20;99.90;;;;;;5020930;28;20190;-79
2021/08/31 07:10:40;;;;;;;12.13;10.37;;;14.20;99.90;;;;;;5020268;28;20186;-80
2021/08/31 07:13:06;;;;;;;12.77;11.57;;;14.20;99.90;;;;;;5021063;28;20689;-79
2021/08/31 07:15:32;;;;;;;11.10;10.10;;;14.30;99.90;;;;;;5016165;28;20187;-78
2021/08/31 07:17:58;;;;;;;10.40;9.43;;;14.30;99.90;;;;;;4998036;28;20258;-78
2021/08/31 07:20:25;;;;;;;10.20;9.20;;;14.30;99.90;;;;;;4999499;28;20175;-78
2021/08/31 07:22:50;;;;;;;11.23;10.23;;;14.40;99.90;;;;;;4998023;28;20183;-78
2021/08/31 07:25:16;;;;;;;10.27;9.37;;;14.40;99.90;;;;;;4998841;28;20535;-78
2021/08/31 07:27:42;;;;;;;11.03;10.03;;;14.30;99.90;;;;;;4998955;28;20187;-78
2021/08/31 07:30:09;;;;;;;10.97;10.00;;;14.40;99.90;;;;;;4998920;28;20673;-77
2021/08/31 07:32:35;;;;;;;10.93;9.93;;;14.40;99.90;;;;;;4997639;28;20179;-77
2021/08/31 07:35:01;;;;;;;10.37;9.57;;;14.40;99.90;;;;;;4997359;28;20195;-78
2021/08/31 07:37:26;;;;;;;10.07;9.27;;;14.50;99.90;;;;;;4998756;28;20175;-77
2021/08/31 07:39:52;;;;;;;10.67;9.77;;;14.50;99.90;;;;;;4998680;28;20175;-78
2021/08/31 07:42:18;;;;;;;10.57;9.60;;;14.50;99.90;;;;;;4998775;28;20651;-78
2021/08/31 07:44:44;;;;;;;10.30;9.40;;;14.50;99.90;;;;;;4998346;28;20575;-77
2021/08/31 07:47:10;;;;;;;11.37;10.30;;;14.50;99.90;;;;;;4985093;28;20209;-78
2021/08/31 07:49:36;;;;;;;11.03;10.10;;;14.60;99.90;;;;;;4998404;28;20175;-77
2021/08/31 07:52:02;;;;;;;10.33;9.40;;;14.60;99.90;;;;;;4998644;28;20270;-78
2021/08/31 07:54:27;;;;;;;10.80;9.90;;;14.60;99.90;;;;;;4998278;28;20562;-78
2021/08/31 07:56:56;;;;;;;11.40;10.40;;;14.60;99.90;;;;;;4998981;28;20179;-78
2021/08/31 07:59:22;;;;;;;11.90;10.70;;;14.60;99.90;;;;;;4998496;28;20282;-78
2021/08/31 08:01:48;;;;;;;11.90;10.80;;;14.70;99.90;;;;;;4997969;28;20650;-78
2021/08/31 08:04:14;;;;;;;11.73;10.60;;;14.70;99.90;;;;;;4997266;28;20207;-78
2021/08/31 08:06:41;;;;;;;12.27;11.27;;;14.70;99.90;;;;;;4998144;28;20209;-78
2021/08/31 08:09:07;;;;;;;11.60;10.70;;;14.70;99.90;;;;;;4997801;28;20258;-79
2021/08/31 08:11:33;;;;;;;12.00;11.00;;;14.80;99.90;;;;;;4996844;28;20257;-79
2021/08/31 08:13:59;;;;;;;12.53;11.33;;;14.80;99.90;;;;;;4995871;28;20214;-79
2021/08/31 08:16:25;;;;;;;12.47;11.37;;;14.80;99.90;;;;;;4996424;28;20171;-79
2021/08/31 08:18:51;;;;;;;13.00;11.73;;;14.90;99.90;;;;;;4997444;28;20630;-78
2021/08/31 08:21:17;;;;;;;11.97;10.97;;;14.90;99.90;;;;;;4996663;28;20171;-78
2021/08/31 08:23:44;;;;;;;11.80;10.80;;;14.90;99.90;;;;;;4995977;28;20226;-79
2021/08/31 08:26:10;;;;;;;12.77;11.67;;;14.90;99.90;;;;;;4998273;28;20638;-79
2021/08/31 08:28:37;;;;;;;13.00;11.70;;;14.90;99.90;;;;;;4998303;28;20175;-78
2021/08/31 08:31:03;;;;;;;12.10;10.93;;;14.90;99.90;;;;;;4998886;28;20183;-79
2021/08/31 08:33:32;;;;;;;10.77;9.87;;;14.90;99.90;;;;;;4999345;28;20561;-78
2021/08/31 08:35:58;;;;;;;9.67;8.77;;;14.80;99.90;;;;;;5000210;28;20202;-78
2021/08/31 08:38:24;;;;;;;10.37;9.47;;;14.90;99.90;;;;;;4997731;28;20179;-78
2021/08/31 08:40:50;;;;;;;10.93;9.97;;;14.90;99.90;;;;;;4998878;28;20179;-78
2021/08/31 08:43:16;;;;;;;11.00;10.00;;;14.90;99.90;;;;;;4999549;28;20257;-78
2021/08/31 08:45:49;;;;;;;10.40;9.60;;;14.90;99.90;;;;;;4995966;28;20190;-79
2021/08/31 08:48:23;;;;;;;10.20;9.30;;;15.00;99.90;;;;;;4997545;28;20265;-79
2021/08/31 08:50:49;;;;;;;10.07;9.17;;;15.10;99.90;;;;;;4997401;28;20261;-78
2021/08/31 08:53:17;;;;;;;10.07;9.23;;;15.10;99.90;;;;;;5002103;28;20278;-78
2021/08/31 08:55:43;;;;;;;8.87;8.07;;;15.10;99.90;;;;;;5023714;28;20178;-79
2021/08/31 08:58:08;;;;;;;8.70;8.00;;;15.00;99.90;;;;;;5000292;28;20182;-78
2021/08/31 09:01:08;;;;;;;9.23;8.40;;;15.00;99.90;;;;;;5005414;28;20186;-79
2021/08/31 09:03:36;;;;;;;9.13;8.43;;;15.10;99.90;;;;;;4999640;28;20665;-80
2021/08/31 09:06:12;;;;;;;10.03;9.13;;;15.20;99.90;;;;;;5022507;28;20234;-78
2021/08/31 09:08:56;;;;;;;10.30;9.50;;;15.30;99.90;;;;;;5021930;28;20184;-79
2021/08/31 09:11:31;;;;;;;9.53;8.73;;;15.40;99.90;;;;;;5000092;28;20242;-79
2021/08/31 09:14:17;;;;;;;8.33;7.63;;;15.30;99.90;;;;;;5002664;28;20205;-79
2021/08/31 09:16:45;;;;;;;8.37;7.70;;;15.30;99.90;;;;;;5007013;28;20182;-78
2021/08/31 09:19:12;;;;;;;8.10;7.50;;;15.40;99.90;;;;;;4999619;28;20172;-78
2021/08/31 09:21:38;;;;;;;8.13;7.53;;;15.50;99.90;;;;;;5001272;28;20179;-79
2021/08/31 09:24:04;;;;;;;15.83;7.47;;;15.60;99.90;;;;;;5006453;28;20306;-78
2021/08/31 09:26:33;;;;;;;7.30;6.70;;;16.10;99.90;;;;;;5001055;28;20232;-79
2021/08/31 09:29:11;;;;;;;7.63;6.93;;;15.70;99.90;;;;;;4998240;28;20184;-79
2021/08/31 09:31:53;;;;;;;6.47;5.87;;;15.80;99.90;;;;;;4999244;28;20574;-79
2021/08/31 09:34:43;;;;;;;6.00;5.50;;;15.70;99.90;;;;;;4991690;28;20588;-79
2021/08/31 09:37:26;;;;;;;6.40;5.97;;;15.80;99.90;;;;;;4997369;28;20183;-75
2021/08/31 09:40:03;;;;;;;6.80;6.30;;;15.80;99.90;;;;;;5002066;28;20170;-79
2021/08/31 09:42:29;;;;;;;7.20;6.70;;;15.80;99.90;;;;;;5009693;28;20190;-80
2021/08/31 09:45:07;;;;;;;7.10;6.53;;;16.00;99.90;;;;;;5023323;28;20194;-80
2021/08/31 09:47:35;;;;;;;6.63;6.13;;;16.20;99.90;;;;;;5007497;28;20264;-79
2021/08/31 09:50:03;;;;;;;6.43;5.93;;;16.30;99.90;;;;;;5010295;28;20183;-79
2021/08/31 09:52:29;;;;;;;5.37;4.97;;;16.30;99.90;;;;;;5010250;28;20194;-80
2021/08/31 09:54:55;;;;;;;6.10;5.60;;;16.30;99.90;;;;;;5026043;28;20652;-81
2021/08/31 09:57:36;;;;;;;6.20;5.70;;;16.30;99.90;;;;;;5026881;28;20171;-81
2021/08/31 10:00:15;;;;;;;6.50;6.00;;;16.30;99.90;;;;;;5027185;28;20265;-80
2021/08/31 10:02:43;;;;;;;5.80;5.00;;;16.10;99.90;;;;;;5029968;28;20230;-80
2021/08/31 10:05:09;;;;;;;5.10;4.70;;;16.20;99.90;;;;;;5027828;28;20193;-80
2021/08/31 10:07:36;;;;;;;5.87;5.37;;;16.10;99.90;;;;;;5009245;28;20185;-82
2021/08/31 10:10:02;;;;;;;5.63;5.00;;;16.10;99.90;;;;;;5013483;28;20661;-81
2021/08/31 10:12:30;;;;;;;6.27;5.67;;;16.10;99.90;;;;;;5024782;28;20175;-79
2021/08/31 10:14:57;;;;;;;6.10;5.50;;;16.10;99.90;;;;;;5023799;28;20211;-80
2021/08/31 10:17:28;;;;;;;7.27;6.57;;;16.10;99.90;;;;;;5020207;28;20205;-81
2021/08/31 10:19:59;;;;;;;6.37;5.83;;;16.10;99.90;;;;;;5031580;28;20220;-80
2021/08/31 10:22:26;;;;;;;6.97;6.37;;;16.10;99.90;;;;;;5028460;28;20725;-81
2021/08/31 10:24:53;;;;;;;6.57;5.97;;;16.10;99.90;;;;;;5005421;28;20206;-81
2021/08/31 10:27:31;;;;;;;6.60;6.10;;;16.10;99.90;;;;;;5018807;28;20179;-80
2021/08/31 10:30:18;;;;;;;6.83;6.20;;;16.00;99.90;;;;;;5011500;28;20191;-80
2021/08/31 10:32:45;;;;;;;6.73;6.23;;;16.00;99.90;;;;;;5019030;28;20183;-79
2021/08/31 10:35:39;;;;;;;6.63;6.03;;;16.00;99.90;;;;;;5024794;28;20190;-80
2021/08/31 10:38:07;;;;;;;6.67;6.07;;;15.90;99.90;;;;;;5023234;28;20179;-80
2021/08/31 10:40:34;;;;;;;6.63;6.10;;;15.90;99.90;;;;;;5008896;28;20218;-80
2021/08/31 10:43:01;;;;;;;6.50;6.00;;;15.90;99.90;;;;;;5025055;28;20174;-80
2021/08/31 10:45:38;;;;;;;7.47;6.87;;;16.00;99.90;;;;;;5024387;28;20241;-80
2021/08/31 10:48:22;;;;;;;8.40;7.70;;;16.00;99.90;;;;;;5029996;28;20175;-80
2021/08/31 10:50:57;;;;;;;7.50;6.90;;;16.10;99.90;;;;;;5029274;28;20270;-80
2021/08/31 10:53:44;;;;;;;8.10;6.90;;;16.00;99.90;;;;;;5020423;28;20214;-81
2021/08/31 10:56:22;;;;;;;7.43;6.83;;;16.00;99.90;;;;;;5020202;28;20191;-80
2021/08/31 10:58:57;;;;;;;6.87;6.13;;;16.00;99.90;;;;;;5029690;28;20197;-81
2021/08/31 11:01:34;;;;;;;7.43;6.83;;;16.00;99.90;;;;;;5012888;28;20794;-81
2021/08/31 11:04:00;;;;;;;7.10;6.60;;;16.10;99.90;;;;;;5031770;28;20200;-81
2021/08/31 11:06:31;;;;;;;7.17;6.50;;;16.10;99.90;;;;;;5026155;28;20201;-81
2021/08/31 11:09:11;;;;;;;7.80;7.10;;;16.20;99.90;;;;;;5026301;28;20197;-83
2021/08/31 11:11:38;;;;;;;6.70;6.20;;;16.20;99.90;;;;;;5015799;28;20209;-80
2021/08/31 11:14:04;;;;;;;7.50;6.63;;;16.20;99.90;;;;;;5003845;28;20219;-82
2021/08/31 11:16:35;;;;;;;7.30;6.63;;;16.20;99.90;;;;;;5029679;28;20178;-81
2021/08/31 11:19:01;;;;;;;6.77;6.07;;;16.20;99.90;;;;;;5026956;28;20201;-81
2021/08/31 11:21:27;;;;;;;6.23;5.73;;;16.20;99.90;;;;;;5028415;28;20187;-80
2021/08/31 11:24:04;;;;;;;6.30;5.80;;;16.20;99.90;;;;;;5020020;28;20295;-79
2021/08/31 11:26:29;;;;;;;7.57;6.87;;;16.30;99.90;;;;;;4993976;28;20177;-85
2021/08/31 11:29:09;;;;;;;7.40;6.70;;;16.30;99.90;;;;;;4992739;28;20218;-85
2021/08/31 11:31:35;;;;;;;6.60;6.10;;;16.40;99.90;;;;;;5009709;28;20233;-84
2021/08/31 11:34:01;;;;;;;6.93;6.33;;;16.40;99.90;;;;;;5005780;28;20263;-85
2021/08/31 11:36:30;;;;;;;6.70;6.10;;;16.40;99.90;;;;;;5024912;28;20235;-84
2021/08/31 11:39:03;;;;;;;7.00;6.20;;;16.50;99.90;;;;;;5024561;28;20238;-84
2021/08/31 11:41:32;;;;;;;6.73;6.20;;;16.50;99.90;;;;;;5006293;28;20181;-85
2021/08/31 11:44:06;;;;;;;7.20;6.63;;;16.60;99.90;;;;;;5006690;28;20195;-84
2021/08/31 11:46:34;;;;;;;7.50;6.80;;;16.60;99.90;;;;;;5023918;28;20185;-84
2021/08/31 11:49:18;;;;;;;6.43;5.93;;;16.60;99.90;;;;;;5024208;28;20176;-85
2021/08/31 11:52:04;;;;;;;6.90;6.30;;;16.60;99.90;;;;;;5006102;28;20194;-84
2021/08/31 11:54:44;;;;;;;7.60;7.00;;;16.70;99.90;;;;;;5005621;28;20212;-84
2021/08/31 11:57:11;;;;;;;6.80;6.20;;;16.70;99.90;;;;;;5022800;28;20179;-85
2021/08/31 11:59:48;;;;;;;7.30;6.70;;;16.70;99.90;;;;;;5023152;28;20180;-84
2021/08/31 12:02:30;;;;;;;6.27;5.77;;;16.80;99.90;;;;;;5024344;28;20647;-84
2021/08/31 12:04:58;;;;;;;6.47;5.97;;;16.70;99.90;;;;;;5005270;28;20206;-84
2021/08/31 12:07:43;;;;;;;6.40;5.83;;;16.80;99.90;;;;;;5022383;28;20185;-84
2021/08/31 12:10:25;;;;;;;6.03;5.53;;;16.80;99.90;;;;;;5023099;28;20165;-84
2021/08/31 12:12:52;;;;;;;6.77;6.20;;;16.80;99.90;;;;;;5009024;28;20171;-84
2021/08/31 12:15:23;;;;;;;5.60;5.10;;;16.90;99.90;;;;;;5021464;28;20184;-84
2021/08/31 12:18:00;;;;;;;5.43;5.03;;;16.90;99.90;;;;;;5005235;28;20215;-84
2021/08/31 12:20:26;;;;;;;5.27;4.87;;;16.90;99.90;;;;;;5005388;28;20182;-84
2021/08/31 12:22:56;;;;;;;5.50;4.97;;;16.90;99.90;;;;;;5022649;28;20216;-84
2021/08/31 12:25:22;;;;;;;5.63;5.20;;;17.00;99.90;;;;;;5004706;28;20169;-84
2021/08/31 12:27:54;;;;;;;5.00;4.60;;;17.00;99.90;;;;;;5022903;28;20182;-84
2021/08/31 12:30:34;;;;;;;5.57;5.07;;;17.00;99.90;;;;;;5022635;28;20242;-85
2021/08/31 12:33:00;;;;;;;5.33;4.83;;;17.10;99.90;;;;;;5002919;28;20317;-85
2021/08/31 12:35:36;;;;;;;4.97;4.57;;;17.10;99.90;;;;;;5003009;28;20175;-84
2021/08/31 12:38:22;;;;;;;4.37;4.00;;;17.10;99.90;;;;;;5002519;28;20269;-84
2021/08/31 12:40:55;;;;;;;4.90;4.50;;;17.20;99.90;;;;;;5020293;28;20183;-84